createdAt,value
2023-03-03T00:01:38.337Z,100625.47
2023-03-03T00:04:04.817Z,100626.31
2023-03-03T00:06:31.329Z,100625.41
2023-03-03T00:08:58.105Z,100628.00
2023-03-03T00:11:24.842Z,100620.97
2023-03-03T00:13:53.630Z,100626.19
2023-03-03T00:16:32.592Z,100634.09
2023-03-03T00:18:59.959Z,100635.75
2023-03-03T00:21:32.655Z,100640.13
2023-03-03T00:24:05.292Z,100636.66
2023-03-03T00:26:37.668Z,100633.22
2023-03-03T00:29:46.666Z,100628.94
2023-03-03T00:32:15.937Z,100624.59
2023-03-03T00:34:43.862Z,100623.75
2023-03-03T00:37:25.880Z,100618.66
2023-03-03T00:39:52.405Z,100615.13
2023-03-03T00:42:19.808Z,100630.81
2023-03-03T00:44:46.981Z,100624.69
2023-03-03T00:47:52.158Z,100624.72
2023-03-03T00:50:33.558Z,100636.91
2023-03-03T00:53:05.927Z,100622.97
2023-03-03T00:55:33.780Z,100637.72
2023-03-03T00:58:00.443Z,100629.03
2023-03-03T01:00:26.972Z,100630.81
2023-03-03T01:02:53.634Z,100623.88
2023-03-03T01:05:20.642Z,100637.75
2023-03-03T01:07:47.306Z,100633.41
2023-03-03T01:10:14.220Z,100629.00
2023-03-03T01:12:40.825Z,100629.88
2023-03-03T01:15:09.634Z,100631.59
2023-03-03T01:17:36.589Z,100622.00
2023-03-03T01:20:04.509Z,100616.78
2023-03-03T01:22:31.037Z,100622.84
2023-03-03T01:24:59.236Z,100625.41
2023-03-03T01:27:28.590Z,100623.69
2023-03-03T01:29:56.527Z,100615.84
2023-03-03T01:32:24.856Z,100623.72
2023-03-03T01:34:51.476Z,100619.38
2023-03-03T01:37:18.053Z,100613.31
2023-03-03T01:39:48.672Z,100618.59
2023-03-03T01:42:15.789Z,100622.09
2023-03-03T01:44:42.408Z,100616.09
2023-03-03T01:47:22.486Z,100631.84
2023-03-03T01:49:59.924Z,100630.22
2023-03-03T01:52:39.602Z,100622.44
2023-03-03T01:55:15.402Z,100620.78
2023-03-03T01:57:47.545Z,100623.44
2023-03-03T02:00:14.697Z,100623.47
2023-03-03T02:02:42.566Z,100620.88
2023-03-03T02:05:10.300Z,100618.31
2023-03-03T02:07:37.858Z,100622.69
2023-03-03T02:10:06.688Z,100617.53
2023-03-03T02:12:48.330Z,100618.44
2023-03-03T02:15:27.532Z,100620.25
2023-03-03T02:17:57.009Z,100613.31
2023-03-03T02:20:33.119Z,100618.56
2023-03-03T02:23:18.062Z,100624.69
2023-03-03T02:25:58.753Z,100629.00
2023-03-03T02:28:32.366Z,100629.94
2023-03-03T02:30:59.894Z,100628.19
2023-03-03T02:33:27.001Z,100620.41
2023-03-03T02:35:53.896Z,100621.25
2023-03-03T02:38:32.018Z,100623.09
2023-03-03T02:41:34.064Z,100616.13
2023-03-03T02:44:07.337Z,100621.34
2023-03-03T02:46:37.264Z,100620.50
2023-03-03T02:49:05.669Z,100625.78
2023-03-03T02:51:32.695Z,100623.19
2023-03-03T02:53:59.266Z,100619.75
2023-03-03T02:56:25.733Z,100621.53
2023-03-03T02:58:52.143Z,100618.03
2023-03-03T03:01:18.902Z,100619.78
2023-03-03T03:03:45.610Z,100617.19
2023-03-03T03:06:12.244Z,100613.72
2023-03-03T03:08:38.698Z,100612.84
2023-03-03T03:11:08.379Z,100617.22
2023-03-03T03:13:35.090Z,100614.66
2023-03-03T03:16:01.559Z,100612.94
2023-03-03T03:18:28.337Z,100618.16
2023-03-03T03:20:54.716Z,100612.03
2023-03-03T03:23:24.278Z,100618.94
2023-03-03T03:25:50.697Z,100615.44
2023-03-03T03:28:18.718Z,100621.50
2023-03-03T03:30:45.643Z,100621.50
2023-03-03T03:33:12.315Z,100619.72
2023-03-03T03:35:40.387Z,100631.88
2023-03-03T03:38:06.784Z,100632.78
2023-03-03T03:40:33.187Z,100626.72
2023-03-03T03:42:59.558Z,100626.72
2023-03-03T03:45:25.937Z,100623.22
2023-03-03T03:47:52.316Z,100629.31
2023-03-03T03:50:19.034Z,100640.59
2023-03-03T03:52:45.513Z,100631.09
2023-03-03T03:55:11.914Z,100632.88
2023-03-03T03:57:38.305Z,100628.56
2023-03-03T04:00:06.038Z,100627.69
2023-03-03T04:02:32.461Z,100628.59
2023-03-03T04:04:59.011Z,100638.13
2023-03-03T04:07:25.441Z,100639.00
2023-03-03T04:09:52.054Z,100639.84
2023-03-03T04:12:18.408Z,100624.19
2023-03-03T04:14:44.786Z,100622.47
2023-03-03T04:17:18.833Z,100614.69
2023-03-03T04:19:45.587Z,100624.19
2023-03-03T04:22:13.506Z,100625.06
2023-03-03T04:24:42.746Z,100623.31
2023-03-03T04:27:09.409Z,100622.44
2023-03-03T04:29:36.164Z,100622.38
2023-03-03T04:32:02.730Z,100627.59
2023-03-03T04:34:29.086Z,100619.75
2023-03-03T04:36:55.581Z,100627.59
2023-03-03T04:39:21.912Z,100638.00
2023-03-03T04:41:48.292Z,100627.59
2023-03-03T04:44:14.591Z,100629.38
2023-03-03T04:46:40.954Z,100637.19
2023-03-03T04:49:09.795Z,100634.59
2023-03-03T04:51:37.934Z,100633.72
2023-03-03T04:54:04.481Z,100638.91
2023-03-03T04:56:31.634Z,100640.63
2023-03-03T04:58:58.359Z,100638.91
2023-03-03T05:01:24.774Z,100641.50
2023-03-03T05:03:51.213Z,100646.69
2023-03-03T05:06:18.809Z,100640.63
2023-03-03T05:08:46.027Z,100635.41
2023-03-03T05:11:13.910Z,100644.97
2023-03-03T05:13:40.784Z,100646.69
2023-03-03T05:16:07.719Z,100653.63
2023-03-03T05:18:34.211Z,100652.78
2023-03-03T05:21:01.588Z,100654.50
2023-03-03T05:23:27.922Z,100649.28
2023-03-03T05:25:54.343Z,100648.38
2023-03-03T05:28:20.991Z,100660.53
2023-03-03T05:30:47.391Z,100663.13
2023-03-03T05:33:16.539Z,100652.72
2023-03-03T05:35:43.570Z,100656.19
2023-03-03T05:38:10.464Z,100664.03
2023-03-03T05:40:37.535Z,100661.50
2023-03-03T05:43:04.167Z,100658.94
2023-03-03T05:45:30.621Z,100652.06
2023-03-03T05:47:57.011Z,100653.81
2023-03-03T05:50:23.923Z,100662.50
2023-03-03T05:52:52.058Z,100659.94
2023-03-03T05:55:19.320Z,100662.56
2023-03-03T05:57:46.060Z,100650.44
2023-03-03T06:00:13.559Z,100655.66
2023-03-03T06:02:40.835Z,100652.19
2023-03-03T06:05:07.680Z,100654.81
2023-03-03T06:07:34.481Z,100660.88
2023-03-03T06:10:01.177Z,100662.63
2023-03-03T06:12:27.573Z,100665.22
2023-03-03T06:14:53.968Z,100663.47
2023-03-03T06:17:20.363Z,100662.56
2023-03-03T06:19:47.686Z,100666.94
2023-03-03T06:22:14.472Z,100665.19
2023-03-03T06:24:40.970Z,100665.19
2023-03-03T06:27:07.675Z,100673.06
2023-03-03T06:29:34.022Z,100673.91
2023-03-03T06:32:00.483Z,100676.50
2023-03-03T06:34:27.116Z,100678.25
2023-03-03T06:36:53.541Z,100676.50
2023-03-03T06:39:19.962Z,100688.63
2023-03-03T06:41:46.322Z,100680.78
2023-03-03T06:44:13.101Z,100682.50
2023-03-03T06:46:39.508Z,100683.38
2023-03-03T06:49:05.923Z,100690.28
2023-03-03T06:51:39.704Z,100685.94
2023-03-03T06:54:30.852Z,100691.97
2023-03-03T06:57:00.777Z,100691.91
2023-03-03T06:59:27.996Z,100698.84
2023-03-03T07:01:54.536Z,100689.28
2023-03-03T07:04:31.657Z,100699.66
2023-03-03T07:07:00.184Z,100708.31
2023-03-03T07:09:29.063Z,100702.19
2023-03-03T07:12:06.566Z,100710.91
2023-03-03T07:14:34.945Z,100715.19
2023-03-03T07:17:05.002Z,100720.31
2023-03-03T07:19:34.627Z,100729.88
2023-03-03T07:22:15.988Z,100735.09
2023-03-03T07:24:44.582Z,100729.81
2023-03-03T07:27:25.605Z,100741.13
2023-03-03T07:29:54.375Z,100735.88
2023-03-03T07:32:50.275Z,100735.00
2023-03-03T07:35:40.542Z,100743.72
2023-03-03T07:38:38.934Z,100741.13
2023-03-03T07:41:17.361Z,100744.53
2023-03-03T07:43:54.797Z,100740.22
2023-03-03T07:46:35.319Z,100747.16
2023-03-03T07:49:05.990Z,100748.00
2023-03-03T07:51:42.000Z,100753.19
2023-03-03T07:54:15.090Z,100752.28
2023-03-03T07:56:42.059Z,100755.69
2023-03-03T07:59:27.303Z,100759.09
2023-03-03T08:01:58.077Z,100751.25
2023-03-03T08:04:50.640Z,100755.63
2023-03-03T08:07:19.049Z,100762.44
2023-03-03T08:09:56.276Z,100753.75
2023-03-03T08:12:31.077Z,100751.97
2023-03-03T08:15:20.866Z,100751.94
2023-03-03T08:17:48.236Z,100754.44
2023-03-03T08:20:36.402Z,100757.00
2023-03-03T08:23:02.752Z,100757.75
2023-03-03T08:25:29.443Z,100762.03
2023-03-03T08:27:55.787Z,100761.13
2023-03-03T08:30:22.276Z,100764.53
2023-03-03T08:32:48.717Z,100767.94
2023-03-03T08:35:15.256Z,100756.47
2023-03-03T08:37:41.597Z,100765.97
2023-03-03T08:40:08.686Z,100762.38
2023-03-03T08:42:35.018Z,100756.25
2023-03-03T08:45:01.489Z,100751.00
2023-03-03T08:47:27.885Z,100753.56
2023-03-03T08:49:54.484Z,100751.75
2023-03-03T08:52:20.978Z,100756.00
2023-03-03T08:54:47.485Z,100759.47
2023-03-03T08:57:14.067Z,100761.19
2023-03-03T08:59:40.833Z,100757.66
2023-03-03T09:02:07.536Z,100759.34
2023-03-03T09:04:34.789Z,100765.34
2023-03-03T09:07:01.178Z,100768.81
2023-03-03T09:09:27.690Z,100765.28
2023-03-03T09:11:58.633Z,100763.53
2023-03-03T09:14:28.961Z,100773.06
2023-03-03T09:16:57.216Z,100776.50
2023-03-03T09:19:29.465Z,100767.78
2023-03-03T09:21:59.015Z,100772.97
2023-03-03T09:24:35.914Z,100769.53
2023-03-03T09:27:02.906Z,100767.72
2023-03-03T09:29:30.855Z,100786.88
2023-03-03T09:31:59.712Z,100777.25
2023-03-03T09:34:38.518Z,100784.25
2023-03-03T09:37:34.244Z,100792.91
2023-03-03T09:40:00.872Z,100791.03
2023-03-03T09:42:46.105Z,100794.56
2023-03-03T09:45:44.868Z,100803.25
2023-03-03T09:48:40.533Z,100800.63
2023-03-03T09:51:33.615Z,100800.56
2023-03-03T09:54:20.874Z,100802.22
2023-03-03T09:56:57.115Z,100793.44
2023-03-03T09:59:32.699Z,100803.84
2023-03-03T10:02:11.885Z,100802.91
2023-03-03T10:04:42.633Z,100805.50
2023-03-03T10:07:37.344Z,100814.16
2023-03-03T10:10:41.228Z,100806.28
2023-03-03T10:13:22.537Z,100812.25
2023-03-03T10:16:10.880Z,100815.69
2023-03-03T10:18:49.619Z,100809.56
2023-03-03T10:21:33.779Z,100806.06
2023-03-03T10:24:25.442Z,100803.44
2023-03-03T10:27:36.840Z,100803.41
2023-03-03T10:30:54.797Z,100804.19
2023-03-03T10:33:36.460Z,100803.19
2023-03-03T10:36:22.178Z,100811.03
2023-03-03T10:39:03.043Z,100808.31
2023-03-03T10:41:48.037Z,100804.78
2023-03-03T10:44:25.776Z,100804.72
2023-03-03T10:47:18.519Z,100812.50
2023-03-03T10:49:55.000Z,100808.94
2023-03-03T10:52:24.637Z,100806.19
2023-03-03T10:55:23.286Z,100807.91
2023-03-03T10:58:27.711Z,100809.53
2023-03-03T11:01:24.423Z,100804.19
2023-03-03T11:04:01.851Z,100807.50
2023-03-03T11:07:12.610Z,100810.09
2023-03-03T11:09:44.904Z,100801.25
2023-03-03T11:12:53.592Z,100807.31
2023-03-03T11:15:46.223Z,100803.59
2023-03-03T11:18:25.970Z,100800.94
2023-03-03T11:21:07.005Z,100800.84
2023-03-03T11:24:01.104Z,100803.31
2023-03-03T11:27:08.894Z,100797.06
2023-03-03T11:30:13.023Z,100795.06
2023-03-03T11:32:39.555Z,100789.53
2023-03-03T11:35:29.037Z,100791.25
2023-03-03T11:38:21.974Z,100797.19
2023-03-03T11:40:55.216Z,100795.25
2023-03-03T11:43:45.392Z,100795.22
2023-03-03T11:46:18.432Z,100793.34
2023-03-03T11:48:55.500Z,100784.53
2023-03-03T11:51:31.169Z,100794.06
2023-03-03T11:54:04.235Z,100791.28
2023-03-03T11:56:41.135Z,100782.38
2023-03-03T11:59:25.959Z,100792.50
2023-03-03T12:02:20.966Z,100794.16
2023-03-03T12:04:54.266Z,100787.78
2023-03-03T12:07:41.165Z,100782.50
2023-03-03T12:10:41.507Z,100774.53
2023-03-03T12:13:14.700Z,100774.25
2023-03-03T12:15:50.167Z,100768.88
2023-03-03T12:18:35.209Z,100766.13
2023-03-03T12:21:16.396Z,100773.88
2023-03-03T12:24:12.396Z,100765.88
2023-03-03T12:27:00.188Z,100769.22
2023-03-03T12:29:32.362Z,100766.47
2023-03-03T12:32:42.020Z,100765.56
2023-03-03T12:35:42.316Z,100759.31
2023-03-03T12:38:14.989Z,100765.22
2023-03-03T12:40:53.671Z,100769.59
2023-03-03T12:43:35.399Z,100766.09
2023-03-03T12:46:31.311Z,100758.88
2023-03-03T12:48:57.892Z,100746.78
2023-03-03T12:51:39.759Z,100756.75
2023-03-03T12:54:21.509Z,100749.78
2023-03-03T12:56:54.811Z,100740.91
2023-03-03T12:59:35.764Z,100739.91
2023-03-03T13:02:20.638Z,100727.41
2023-03-03T13:05:09.014Z,100728.00
2023-03-03T13:07:48.350Z,100709.09
2023-03-03T13:10:38.921Z,100720.41
2023-03-03T13:13:08.013Z,100712.66
2023-03-03T13:15:51.856Z,100710.75
2023-03-03T13:18:36.701Z,100705.09
2023-03-03T13:21:22.678Z,100705.28
2023-03-03T13:23:51.830Z,100701.09
2023-03-03T13:26:36.843Z,100696.97
2023-03-03T13:29:38.658Z,100690.66
2023-03-03T13:32:20.167Z,100694.25
2023-03-03T13:34:58.237Z,100695.81
2023-03-03T13:37:32.118Z,100685.88
2023-03-03T13:40:17.479Z,100690.91
2023-03-03T13:42:47.021Z,100686.66
2023-03-03T13:45:25.064Z,100690.09
2023-03-03T13:48:18.833Z,100681.22
2023-03-03T13:50:53.929Z,100678.47
2023-03-03T13:54:06.193Z,100669.78
2023-03-03T13:56:57.214Z,100675.66
2023-03-03T13:59:54.723Z,100669.72
2023-03-03T14:02:42.623Z,100661.88
2023-03-03T14:05:31.898Z,100668.03
2023-03-03T14:08:16.862Z,100664.44
2023-03-03T14:11:19.390Z,100651.75
2023-03-03T14:14:07.648Z,100655.84
2023-03-03T14:16:52.207Z,100651.16
2023-03-03T14:19:28.477Z,100655.28
2023-03-03T14:22:05.134Z,100651.69
2023-03-03T14:24:32.371Z,100647.28
2023-03-03T14:27:00.202Z,100638.06
2023-03-03T14:29:27.060Z,100634.28
2023-03-03T14:31:59.194Z,100643.75
2023-03-03T14:34:41.209Z,100639.47
2023-03-03T14:37:44.007Z,100645.25
2023-03-03T14:40:22.888Z,100638.19
2023-03-03T14:42:54.520Z,100631.25
2023-03-03T14:45:36.307Z,100624.91
2023-03-03T14:48:19.540Z,100629.53
2023-03-03T14:51:09.286Z,100630.94
2023-03-03T14:53:38.374Z,100633.13
2023-03-03T14:56:25.270Z,100629.25
2023-03-03T14:59:18.505Z,100626.06
2023-03-03T15:01:46.028Z,100628.38
2023-03-03T15:04:15.540Z,100631.06
2023-03-03T15:06:47.701Z,100617.72
2023-03-03T15:09:25.263Z,100616.94
2023-03-03T15:11:53.601Z,100615.84
2023-03-03T15:14:29.306Z,100615.69
2023-03-03T15:17:12.115Z,100611.06
2023-03-03T15:19:50.646Z,100618.72
2023-03-03T15:22:34.098Z,100615.03
2023-03-03T15:25:15.273Z,100616.41
2023-03-03T15:28:26.683Z,100617.75
2023-03-03T15:31:32.120Z,100614.69
2023-03-03T15:33:58.523Z,100605.16
2023-03-03T15:36:48.015Z,100604.59
2023-03-03T15:39:20.442Z,100603.16
2023-03-03T15:42:04.008Z,100594.66
2023-03-03T15:44:49.322Z,100599.03
2023-03-03T15:47:43.740Z,100587.25
2023-03-03T15:50:25.487Z,100593.69
2023-03-03T15:53:05.861Z,100587.66
2023-03-03T15:55:52.455Z,100584.53
2023-03-03T15:58:58.403Z,100584.69
2023-03-03T16:01:29.718Z,100591.78
2023-03-03T16:04:00.705Z,100590.28
2023-03-03T16:06:45.628Z,100591.53
2023-03-03T16:09:56.370Z,100597.06
2023-03-03T16:12:41.792Z,100586.88
2023-03-03T16:15:35.482Z,100602.81
2023-03-03T16:18:17.172Z,100595.25
2023-03-03T16:21:03.290Z,100598.09
2023-03-03T16:23:39.258Z,100596.53
2023-03-03T16:26:23.748Z,100596.75
2023-03-03T16:29:09.225Z,100594.41
2023-03-03T16:32:01.243Z,100596.50
2023-03-03T16:34:42.788Z,100599.25
2023-03-03T16:37:21.650Z,100596.81
2023-03-03T16:40:03.358Z,100589.91
2023-03-03T16:42:33.492Z,100594.38
2023-03-03T16:45:22.668Z,100599.06
2023-03-03T16:47:58.446Z,100603.56
2023-03-03T16:50:43.653Z,100596.66
2023-03-03T16:53:19.332Z,100603.66
2023-03-03T16:55:58.576Z,100605.47
2023-03-03T16:58:34.860Z,100603.94
2023-03-03T17:01:35.938Z,100605.75
2023-03-03T17:04:05.200Z,100602.19
2023-03-03T17:06:43.525Z,100600.59
2023-03-03T17:09:54.281Z,100601.78
2023-03-03T17:12:50.873Z,100606.22
2023-03-03T17:15:35.900Z,100606.28
2023-03-03T17:18:11.362Z,100611.59
2023-03-03T17:20:57.144Z,100609.09
2023-03-03T17:23:23.800Z,100608.97
2023-03-03T17:25:57.242Z,100610.88
2023-03-03T17:28:26.323Z,100610.81
2023-03-03T17:31:20.551Z,100616.31
2023-03-03T17:34:19.690Z,100621.56
2023-03-03T17:37:09.425Z,100613.84
2023-03-03T17:39:45.185Z,100622.78
2023-03-03T17:42:23.112Z,100625.50
2023-03-03T17:45:08.412Z,100623.06
2023-03-03T17:47:55.941Z,100619.81
2023-03-03T17:50:33.337Z,100623.28
2023-03-03T17:53:06.463Z,100624.25
2023-03-03T17:55:55.342Z,100614.03
2023-03-03T17:58:56.733Z,100618.47
2023-03-03T18:01:45.514Z,100615.00
2023-03-03T18:04:30.357Z,100622.03
2023-03-03T18:07:22.107Z,100627.41
2023-03-03T18:10:19.952Z,100619.59
2023-03-03T18:13:22.291Z,100629.28
2023-03-03T18:16:18.857Z,100633.75
2023-03-03T18:18:48.420Z,100628.44
2023-03-03T18:21:20.914Z,100636.31
2023-03-03T18:23:48.918Z,100632.88
2023-03-03T18:26:36.517Z,100634.75
2023-03-03T18:29:16.147Z,100633.91
2023-03-03T18:32:02.764Z,100633.22
2023-03-03T18:34:40.449Z,100634.09
2023-03-03T18:37:29.972Z,100637.59
2023-03-03T18:40:02.317Z,100634.13
2023-03-03T18:42:42.237Z,100634.09
2023-03-03T18:45:17.679Z,100638.47
2023-03-03T18:48:05.135Z,100634.91
2023-03-03T18:50:33.913Z,100633.91
2023-03-03T18:53:28.458Z,100641.00
2023-03-03T18:56:00.344Z,100637.38
2023-03-03T18:58:27.355Z,100637.38
2023-03-03T19:00:55.989Z,100641.88
2023-03-03T19:03:25.302Z,100639.34
2023-03-03T19:05:54.140Z,100642.78
2023-03-03T19:08:29.964Z,100641.19
2023-03-03T19:11:01.373Z,100639.44
2023-03-03T19:13:42.642Z,100640.44
2023-03-03T19:16:24.555Z,100650.94
2023-03-03T19:18:50.939Z,100643.03
2023-03-03T19:21:25.016Z,100646.66
2023-03-03T19:24:00.503Z,100648.44
2023-03-03T19:26:30.130Z,100642.22
2023-03-03T19:29:24.206Z,100650.22
2023-03-03T19:31:58.608Z,100647.47
2023-03-03T19:34:27.693Z,100649.19
2023-03-03T19:37:32.093Z,100653.69
2023-03-03T19:40:10.569Z,100655.25
2023-03-03T19:43:00.525Z,100648.31
2023-03-03T19:45:57.084Z,100664.09
2023-03-03T19:48:36.053Z,100656.09
2023-03-03T19:51:20.779Z,100649.94
2023-03-03T19:53:50.240Z,100657.91
2023-03-03T19:56:48.637Z,100651.94
2023-03-03T19:59:33.609Z,100652.84
2023-03-03T20:02:39.557Z,100660.00
2023-03-03T20:05:46.243Z,100651.44
2023-03-03T20:08:16.614Z,100659.34
2023-03-03T20:10:56.006Z,100663.88
2023-03-03T20:13:37.656Z,100671.72
2023-03-03T20:16:24.332Z,100658.00
2023-03-03T20:19:09.406Z,100671.03
2023-03-03T20:21:48.292Z,100665.88
2023-03-03T20:24:39.400Z,100666.81
2023-03-03T20:27:13.944Z,100660.69
2023-03-03T20:29:57.288Z,100665.16
2023-03-03T20:32:47.532Z,100652.06
2023-03-03T20:35:24.659Z,100656.47
2023-03-03T20:38:09.279Z,100656.41
2023-03-03T20:40:51.025Z,100648.72
2023-03-03T20:43:45.519Z,100646.16
2023-03-03T20:46:22.799Z,100666.16
2023-03-03T20:49:10.913Z,100658.53
2023-03-03T20:52:05.104Z,100654.16
2023-03-03T20:54:46.697Z,100661.19
2023-03-03T20:57:56.574Z,100658.72
2023-03-03T21:00:38.735Z,100665.56
2023-03-03T21:03:18.343Z,100665.66
2023-03-03T21:05:59.795Z,100659.63
2023-03-03T21:08:55.057Z,100662.28
2023-03-03T21:11:41.666Z,100668.28
2023-03-03T21:14:19.766Z,100665.81
2023-03-03T21:16:46.870Z,100663.16
2023-03-03T21:19:24.985Z,100668.50
2023-03-03T21:21:52.535Z,100666.66
2023-03-03T21:24:21.855Z,100674.53
2023-03-03T21:26:58.227Z,100674.63
2023-03-03T21:29:30.485Z,100673.84
2023-03-03T21:31:59.225Z,100665.91
2023-03-03T21:34:30.105Z,100665.13
2023-03-03T21:36:58.743Z,100670.31
2023-03-03T21:39:35.533Z,100664.22
2023-03-03T21:42:03.405Z,100663.34
2023-03-03T21:44:44.494Z,100664.25
2023-03-03T21:47:14.895Z,100666.94
2023-03-03T21:49:46.630Z,100661.69
2023-03-03T21:52:16.266Z,100661.63
2023-03-03T21:54:43.754Z,100652.00
2023-03-03T21:57:10.762Z,100654.56
2023-03-03T21:59:37.336Z,100659.72
2023-03-03T22:02:04.571Z,100663.22
2023-03-03T22:04:30.986Z,100655.34
2023-03-03T22:06:57.562Z,100652.72
2023-03-03T22:09:24.029Z,100647.47
2023-03-03T22:11:50.364Z,100645.75
2023-03-03T22:14:16.792Z,100641.34
2023-03-03T22:16:43.268Z,100639.66
2023-03-03T22:19:09.880Z,100645.75
2023-03-03T22:21:37.708Z,100644.88
2023-03-03T22:24:04.981Z,100640.56
2023-03-03T22:26:31.529Z,100640.56
2023-03-03T22:28:57.912Z,100638.81
2023-03-03T22:31:24.339Z,100640.59
2023-03-03T22:33:50.782Z,100632.75
2023-03-03T22:36:18.941Z,100637.13
2023-03-03T22:38:46.706Z,100631.88
2023-03-03T22:41:13.503Z,100631.03
2023-03-03T22:43:39.929Z,100624.91
2023-03-03T22:46:06.413Z,100629.28
2023-03-03T22:48:33.028Z,100628.41
2023-03-03T22:50:59.474Z,100624.91
2023-03-03T22:53:26.530Z,100609.22
2023-03-03T22:55:53.033Z,100618.84
2023-03-03T22:58:20.422Z,100629.41
2023-03-03T23:00:48.348Z,100623.31
2023-03-03T23:03:14.767Z,100630.31
2023-03-03T23:05:42.147Z,100632.13
2023-03-03T23:08:11.985Z,100625.22
2023-03-03T23:10:38.765Z,100627.81
2023-03-03T23:13:05.498Z,100633.09
2023-03-03T23:15:32.414Z,100626.94
2023-03-03T23:17:59.037Z,100623.44
2023-03-03T23:20:28.065Z,100624.31
2023-03-03T23:22:54.962Z,100619.94
2023-03-03T23:25:30.057Z,100620.81
2023-03-03T23:27:57.029Z,100626.88
2023-03-03T23:30:23.890Z,100626.88
2023-03-03T23:32:50.818Z,100633.88
2023-03-03T23:35:17.895Z,100625.22
2023-03-03T23:37:44.947Z,100624.34
2023-03-03T23:40:12.309Z,100627.06
2023-03-03T23:42:38.764Z,100618.41
2023-03-03T23:45:05.776Z,100620.25
2023-03-03T23:47:32.690Z,100627.25
2023-03-03T23:49:59.091Z,100623.78
2023-03-03T23:52:25.584Z,100632.56
2023-03-03T23:54:52.998Z,100619.50
2023-03-03T23:57:19.714Z,100629.16
2023-03-03T23:59:46.109Z,100637.03
